sensor_id;sensor_type;location;lat;lon;timestamp;temperature;humidity
74901;DHT22;63461;51.416;6.758;2024-02-14T00:00:19;9.60;99.90
74901;DHT22;63461;51.416;6.758;2024-02-14T00:02:47;9.60;99.90
74901;DHT22;63461;51.416;6.758;2024-02-14T00:05:18;9.60;99.90
74901;DHT22;63461;51.416;6.758;2024-02-14T00:07:45;9.50;99.90
74901;DHT22;63461;51.416;6.758;2024-02-14T00:10:11;9.50;99.90
74901;DHT22;63461;51.416;6.758;2024-02-14T00:12:41;9.40;99.90
74901;DHT22;63461;51.416;6.758;2024-02-14T00:15:08;9.50;99.90
74901;DHT22;63461;51.416;6.758;2024-02-14T00:17:35;9.40;99.90
74901;DHT22;63461;51.416;6.758;2024-02-14T00:20:02;9.40;99.90
74901;DHT22;63461;51.416;6.758;2024-02-14T00:22:32;9.40;99.90
74901;DHT22;63461;51.416;6.758;2024-02-14T00:24:58;9.40;99.90
74901;DHT22;63461;51.416;6.758;2024-02-14T00:27:23;9.40;99.90
74901;DHT22;63461;51.416;6.758;2024-02-14T00:29:51;9.50;99.90
74901;DHT22;63461;51.416;6.758;2024-02-14T00:32:19;9.40;99.90
74901;DHT22;63461;51.416;6.758;2024-02-14T00:34:54;9.40;99.90
74901;DHT22;63461;51.416;6.758;2024-02-14T00:37:20;9.30;99.90
74901;DHT22;63461;51.416;6.758;2024-02-14T00:39:46;9.30;99.90
74901;DHT22;63461;51.416;6.758;2024-02-14T00:42:14;9.40;99.90
74901;DHT22;63461;51.416;6.758;2024-02-14T00:44:39;9.40;99.90
74901;DHT22;63461;51.416;6.758;2024-02-14T00:47:05;9.30;99.90
74901;DHT22;63461;51.416;6.758;2024-02-14T00:49:34;9.40;99.90
74901;DHT22;63461;51.416;6.758;2024-02-14T00:52:00;9.40;99.90
74901;DHT22;63461;51.416;6.758;2024-02-14T00:54:26;9.40;99.90
74901;DHT22;63461;51.416;6.758;2024-02-14T00:56:52;9.30;99.90
74901;DHT22;63461;51.416;6.758;2024-02-14T00:59:17;9.30;99.90
74901;DHT22;63461;51.416;6.758;2024-02-14T01:01:43;9.40;99.90
74901;DHT22;63461;51.416;6.758;2024-02-14T01:04:10;9.30;99.90
74901;DHT22;63461;51.416;6.758;2024-02-14T01:06:36;9.30;99.90
74901;DHT22;63461;51.416;6.758;2024-02-14T01:09:02;9.30;99.90
74901;DHT22;63461;51.416;6.758;2024-02-14T01:11:29;9.20;99.90
74901;DHT22;63461;51.416;6.758;2024-02-14T01:13:55;9.40;99.90
74901;DHT22;63461;51.416;6.758;2024-02-14T01:16:21;9.40;99.90
74901;DHT22;63461;51.416;6.758;2024-02-14T01:18:47;9.30;99.90
74901;DHT22;63461;51.416;6.758;2024-02-14T01:21:13;9.30;99.90
74901;DHT22;63461;51.416;6.758;2024-02-14T01:23:39;9.40;99.90
74901;DHT22;63461;51.416;6.758;2024-02-14T01:26:08;9.40;99.90
74901;DHT22;63461;51.416;6.758;2024-02-14T01:28:34;9.30;99.90
74901;DHT22;63461;51.416;6.758;2024-02-14T01:31:00;9.40;99.90
74901;DHT22;63461;51.416;6.758;2024-02-14T01:33:26;9.40;99.90
74901;DHT22;63461;51.416;6.758;2024-02-14T01:35:57;9.50;99.90
74901;DHT22;63461;51.416;6.758;2024-02-14T01:38:23;9.40;99.90
74901;DHT22;63461;51.416;6.758;2024-02-14T01:40:49;9.40;99.90
74901;DHT22;63461;51.416;6.758;2024-02-14T01:43:17;9.40;99.90
74901;DHT22;63461;51.416;6.758;2024-02-14T01:45:46;9.40;99.90
74901;DHT22;63461;51.416;6.758;2024-02-14T01:48:15;9.40;99.90
74901;DHT22;63461;51.416;6.758;2024-02-14T01:50:44;9.50;99.90
74901;DHT22;63461;51.416;6.758;2024-02-14T01:53:11;9.40;99.90
74901;DHT22;63461;51.416;6.758;2024-02-14T01:55:38;9.50;99.90
74901;DHT22;63461;51.416;6.758;2024-02-14T01:58:04;9.50;99.90
74901;DHT22;63461;51.416;6.758;2024-02-14T02:00:33;9.50;99.90
74901;DHT22;63461;51.416;6.758;2024-02-14T02:03:04;9.50;99.90
74901;DHT22;63461;51.416;6.758;2024-02-14T02:05:31;9.40;99.90
74901;DHT22;63461;51.416;6.758;2024-02-14T02:07:57;9.50;99.90
74901;DHT22;63461;51.416;6.758;2024-02-14T02:10:23;9.50;99.90
74901;DHT22;63461;51.416;6.758;2024-02-14T02:13:11;9.50;99.90
74901;DHT22;63461;51.416;6.758;2024-02-14T02:15:57;9.50;99.90
74901;DHT22;63461;51.416;6.758;2024-02-14T02:18:43;9.50;99.90
74901;DHT22;63461;51.416;6.758;2024-02-14T02:21:29;9.60;99.90
74901;DHT22;63461;51.416;6.758;2024-02-14T02:23:58;9.60;99.90
74901;DHT22;63461;51.416;6.758;2024-02-14T02:26:24;9.60;99.90
74901;DHT22;63461;51.416;6.758;2024-02-14T02:29:10;9.60;99.90
74901;DHT22;63461;51.416;6.758;2024-02-14T02:31:36;9.70;99.90
74901;DHT22;63461;51.416;6.758;2024-02-14T02:34:03;9.70;99.90
74901;DHT22;63461;51.416;6.758;2024-02-14T02:36:29;9.70;99.90
74901;DHT22;63461;51.416;6.758;2024-02-14T02:39:15;9.70;99.90
74901;DHT22;63461;51.416;6.758;2024-02-14T02:42:03;9.70;99.90
74901;DHT22;63461;51.416;6.758;2024-02-14T02:44:55;9.70;99.90
74901;DHT22;63461;51.416;6.758;2024-02-14T02:47:52;9.70;99.90
74901;DHT22;63461;51.416;6.758;2024-02-14T02:50:44;9.70;99.90
74901;DHT22;63461;51.416;6.758;2024-02-14T02:53:42;9.70;99.90
74901;DHT22;63461;51.416;6.758;2024-02-14T02:56:27;9.80;99.90
74901;DHT22;63461;51.416;6.758;2024-02-14T02:58:55;9.80;99.90
74901;DHT22;63461;51.416;6.758;2024-02-14T03:01:21;9.80;99.90
74901;DHT22;63461;51.416;6.758;2024-02-14T03:04:09;9.80;99.90
74901;DHT22;63461;51.416;6.758;2024-02-14T03:06:55;9.80;99.90
74901;DHT22;63461;51.416;6.758;2024-02-14T03:09:41;9.80;99.90
74901;DHT22;63461;51.416;6.758;2024-02-14T03:12:27;9.80;99.90
74901;DHT22;63461;51.416;6.758;2024-02-14T03:15:16;9.80;99.90
74901;DHT22;63461;51.416;6.758;2024-02-14T03:17:48;9.90;99.90
74901;DHT22;63461;51.416;6.758;2024-02-14T03:20:14;9.90;99.90
74901;DHT22;63461;51.416;6.758;2024-02-14T03:22:40;9.90;99.90
74901;DHT22;63461;51.416;6.758;2024-02-14T03:25:17;9.90;99.90
74901;DHT22;63461;51.416;6.758;2024-02-14T03:27:52;9.90;99.90
74901;DHT22;63461;51.416;6.758;2024-02-14T03:30:20;9.90;99.90
74901;DHT22;63461;51.416;6.758;2024-02-14T03:32:46;9.80;99.90
74901;DHT22;63461;51.416;6.758;2024-02-14T03:35:12;9.80;99.90
74901;DHT22;63461;51.416;6.758;2024-02-14T03:37:49;9.80;99.90
74901;DHT22;63461;51.416;6.758;2024-02-14T03:40:18;9.80;99.90
74901;DHT22;63461;51.416;6.758;2024-02-14T03:42:46;9.90;99.90
74901;DHT22;63461;51.416;6.758;2024-02-14T03:45:12;9.80;99.90
74901;DHT22;63461;51.416;6.758;2024-02-14T03:47:38;9.80;99.90
74901;DHT22;63461;51.416;6.758;2024-02-14T03:50:06;9.80;99.90
74901;DHT22;63461;51.416;6.758;2024-02-14T03:52:32;9.80;99.90
74901;DHT22;63461;51.416;6.758;2024-02-14T03:54:59;9.80;99.90
74901;DHT22;63461;51.416;6.758;2024-02-14T03:57:26;9.80;99.90
74901;DHT22;63461;51.416;6.758;2024-02-14T03:59:54;9.90;99.90
74901;DHT22;63461;51.416;6.758;2024-02-14T04:02:22;9.80;99.90
74901;DHT22;63461;51.416;6.758;2024-02-14T04:04:49;9.90;99.90
74901;DHT22;63461;51.416;6.758;2024-02-14T04:07:15;9.90;99.90
74901;DHT22;63461;51.416;6.758;2024-02-14T04:09:41;9.90;99.90
74901;DHT22;63461;51.416;6.758;2024-02-14T04:12:07;10.00;99.90
74901;DHT22;63461;51.416;6.758;2024-02-14T04:14:35;9.90;99.90
74901;DHT22;63461;51.416;6.758;2024-02-14T04:17:01;9.90;99.90
74901;DHT22;63461;51.416;6.758;2024-02-14T04:19:29;9.90;99.90
74901;DHT22;63461;51.416;6.758;2024-02-14T04:21:57;9.90;99.90
74901;DHT22;63461;51.416;6.758;2024-02-14T04:24:23;9.90;99.90
74901;DHT22;63461;51.416;6.758;2024-02-14T04:26:52;10.00;99.90
74901;DHT22;63461;51.416;6.758;2024-02-14T04:29:18;9.90;99.90
74901;DHT22;63461;51.416;6.758;2024-02-14T04:31:44;10.00;99.90
74901;DHT22;63461;51.416;6.758;2024-02-14T04:34:10;10.00;99.90
74901;DHT22;63461;51.416;6.758;2024-02-14T04:36:36;10.00;99.90
74901;DHT22;63461;51.416;6.758;2024-02-14T04:39:02;9.90;99.90
74901;DHT22;63461;51.416;6.758;2024-02-14T04:41:29;10.00;99.90
74901;DHT22;63461;51.416;6.758;2024-02-14T04:43:55;10.00;99.90
74901;DHT22;63461;51.416;6.758;2024-02-14T04:46:21;10.00;99.90
74901;DHT22;63461;51.416;6.758;2024-02-14T04:48:51;9.90;99.90
74901;DHT22;63461;51.416;6.758;2024-02-14T04:51:16;10.00;99.90
74901;DHT22;63461;51.416;6.758;2024-02-14T04:53:42;9.90;99.90
74901;DHT22;63461;51.416;6.758;2024-02-14T04:56:08;9.90;99.90
74901;DHT22;63461;51.416;6.758;2024-02-14T04:58:34;10.00;99.90
74901;DHT22;63461;51.416;6.758;2024-02-14T05:01:04;10.00;99.90
74901;DHT22;63461;51.416;6.758;2024-02-14T05:03:30;10.00;99.90
74901;DHT22;63461;51.416;6.758;2024-02-14T05:05:56;10.00;99.90
74901;DHT22;63461;51.416;6.758;2024-02-14T05:08:23;10.00;99.90
74901;DHT22;63461;51.416;6.758;2024-02-14T05:10:49;10.00;99.90
74901;DHT22;63461;51.416;6.758;2024-02-14T05:13:15;10.00;99.90
74901;DHT22;63461;51.416;6.758;2024-02-14T05:15:42;10.00;99.90
74901;DHT22;63461;51.416;6.758;2024-02-14T05:18:08;10.10;99.90
74901;DHT22;63461;51.416;6.758;2024-02-14T05:20:35;10.00;99.90
74901;DHT22;63461;51.416;6.758;2024-02-14T05:23:01;10.00;99.90
74901;DHT22;63461;51.416;6.758;2024-02-14T05:25:30;10.00;99.90
74901;DHT22;63461;51.416;6.758;2024-02-14T05:28:00;10.00;99.90
74901;DHT22;63461;51.416;6.758;2024-02-14T05:30:26;10.00;99.90
74901;DHT22;63461;51.416;6.758;2024-02-14T05:33:04;10.00;99.90
74901;DHT22;63461;51.416;6.758;2024-02-14T05:35:35;10.00;99.90
74901;DHT22;63461;51.416;6.758;2024-02-14T05:38:10;10.00;99.90
74901;DHT22;63461;51.416;6.758;2024-02-14T05:40:37;10.00;99.90
74901;DHT22;63461;51.416;6.758;2024-02-14T05:43:06;10.00;99.90
74901;DHT22;63461;51.416;6.758;2024-02-14T05:45:33;10.00;99.90
74901;DHT22;63461;51.416;6.758;2024-02-14T05:47:59;10.00;99.90
74901;DHT22;63461;51.416;6.758;2024-02-14T05:50:25;10.00;99.90
74901;DHT22;63461;51.416;6.758;2024-02-14T05:52:51;10.00;99.90
74901;DHT22;63461;51.416;6.758;2024-02-14T05:55:17;10.00;99.90
74901;DHT22;63461;51.416;6.758;2024-02-14T05:57:53;10.00;99.90
74901;DHT22;63461;51.416;6.758;2024-02-14T06:00:19;10.00;99.90
74901;DHT22;63461;51.416;6.758;2024-02-14T06:02:49;10.00;99.90
74901;DHT22;63461;51.416;6.758;2024-02-14T06:05:16;10.00;99.90
74901;DHT22;63461;51.416;6.758;2024-02-14T06:07:42;10.00;99.90
74901;DHT22;63461;51.416;6.758;2024-02-14T06:10:11;10.00;99.90
74901;DHT22;63461;51.416;6.758;2024-02-14T06:12:36;10.00;99.90
74901;DHT22;63461;51.416;6.758;2024-02-14T06:15:03;10.00;99.90
74901;DHT22;63461;51.416;6.758;2024-02-14T06:17:35;10.00;99.90
74901;DHT22;63461;51.416;6.758;2024-02-14T06:20:02;10.00;99.90
74901;DHT22;63461;51.416;6.758;2024-02-14T06:22:33;9.90;99.90
74901;DHT22;63461;51.416;6.758;2024-02-14T06:25:01;9.90;99.90
74901;DHT22;63461;51.416;6.758;2024-02-14T06:27:31;10.00;99.90
74901;DHT22;63461;51.416;6.758;2024-02-14T06:29:58;9.90;99.90
74901;DHT22;63461;51.416;6.758;2024-02-14T06:32:25;10.00;99.90
74901;DHT22;63461;51.416;6.758;2024-02-14T06:34:50;10.00;99.90
74901;DHT22;63461;51.416;6.758;2024-02-14T06:37:16;10.00;99.90
74901;DHT22;63461;51.416;6.758;2024-02-14T06:39:42;10.00;99.90
74901;DHT22;63461;51.416;6.758;2024-02-14T06:42:08;10.00;99.90
74901;DHT22;63461;51.416;6.758;2024-02-14T06:44:36;10.10;99.90
74901;DHT22;63461;51.416;6.758;2024-02-14T06:47:03;10.10;99.90
74901;DHT22;63461;51.416;6.758;2024-02-14T06:49:29;10.10;99.90
74901;DHT22;63461;51.416;6.758;2024-02-14T06:51:55;10.10;99.90
74901;DHT22;63461;51.416;6.758;2024-02-14T06:54:21;10.10;99.90
74901;DHT22;63461;51.416;6.758;2024-02-14T06:56:46;10.10;99.90
74901;DHT22;63461;51.416;6.758;2024-02-14T06:59:13;10.10;99.90
74901;DHT22;63461;51.416;6.758;2024-02-14T07:01:39;10.10;99.90
74901;DHT22;63461;51.416;6.758;2024-02-14T07:04:05;10.10;99.90
74901;DHT22;63461;51.416;6.758;2024-02-14T07:06:31;10.10;99.90
74901;DHT22;63461;51.416;6.758;2024-02-14T07:08:57;10.10;99.90
74901;DHT22;63461;51.416;6.758;2024-02-14T07:11:23;10.10;99.90
74901;DHT22;63461;51.416;6.758;2024-02-14T07:13:50;10.10;99.90
74901;DHT22;63461;51.416;6.758;2024-02-14T07:16:15;10.10;99.90
74901;DHT22;63461;51.416;6.758;2024-02-14T07:18:41;10.20;99.90
74901;DHT22;63461;51.416;6.758;2024-02-14T07:21:07;10.10;99.90
74901;DHT22;63461;51.416;6.758;2024-02-14T07:23:33;10.20;99.90
74901;DHT22;63461;51.416;6.758;2024-02-14T07:26:02;10.10;99.90
74901;DHT22;63461;51.416;6.758;2024-02-14T07:28:28;10.20;99.90
74901;DHT22;63461;51.416;6.758;2024-02-14T07:30:53;10.20;99.90
74901;DHT22;63461;51.416;6.758;2024-02-14T07:33:19;10.20;99.90
74901;DHT22;63461;51.416;6.758;2024-02-14T07:35:45;10.20;99.90
74901;DHT22;63461;51.416;6.758;2024-02-14T07:38:13;10.20;99.90
74901;DHT22;63461;51.416;6.758;2024-02-14T07:40:39;10.30;99.90
74901;DHT22;63461;51.416;6.758;2024-02-14T07:43:14;10.20;99.90
74901;DHT22;63461;51.416;6.758;2024-02-14T07:45:39;10.30;99.90
74901;DHT22;63461;51.416;6.758;2024-02-14T07:48:05;10.30;99.90
74901;DHT22;63461;51.416;6.758;2024-02-14T07:50:32;10.30;99.90
74901;DHT22;63461;51.416;6.758;2024-02-14T07:52:58;10.30;99.90
74901;DHT22;63461;51.416;6.758;2024-02-14T07:55:23;10.30;99.90
74901;DHT22;63461;51.416;6.758;2024-02-14T07:57:49;10.40;99.90
74901;DHT22;63461;51.416;6.758;2024-02-14T08:00:16;10.40;99.90
74901;DHT22;63461;51.416;6.758;2024-02-14T08:02:49;10.40;99.90
74901;DHT22;63461;51.416;6.758;2024-02-14T08:05:14;10.50;99.90
74901;DHT22;63461;51.416;6.758;2024-02-14T08:07:40;10.50;99.90
74901;DHT22;63461;51.416;6.758;2024-02-14T08:10:06;10.50;99.90
74901;DHT22;63461;51.416;6.758;2024-02-14T08:12:32;10.50;99.90
74901;DHT22;63461;51.416;6.758;2024-02-14T08:14:58;10.50;99.90
74901;DHT22;63461;51.416;6.758;2024-02-14T08:17:30;10.60;99.90
74901;DHT22;63461;51.416;6.758;2024-02-14T08:19:56;10.60;99.90
74901;DHT22;63461;51.416;6.758;2024-02-14T08:22:22;10.60;99.90
74901;DHT22;63461;51.416;6.758;2024-02-14T08:24:48;10.70;99.90
74901;DHT22;63461;51.416;6.758;2024-02-14T08:27:13;10.70;99.90
74901;DHT22;63461;51.416;6.758;2024-02-14T08:29:39;10.70;99.90
74901;DHT22;63461;51.416;6.758;2024-02-14T08:32:05;10.70;99.90
74901;DHT22;63461;51.416;6.758;2024-02-14T08:34:33;10.70;99.90
74901;DHT22;63461;51.416;6.758;2024-02-14T08:37:00;10.70;99.90
74901;DHT22;63461;51.416;6.758;2024-02-14T08:39:26;10.70;99.90
74901;DHT22;63461;51.416;6.758;2024-02-14T08:41:52;10.70;99.90
74901;DHT22;63461;51.416;6.758;2024-02-14T08:44:18;10.70;99.90
74901;DHT22;63461;51.416;6.758;2024-02-14T08:46:44;10.70;99.90
74901;DHT22;63461;51.416;6.758;2024-02-14T08:49:14;10.80;99.90
74901;DHT22;63461;51.416;6.758;2024-02-14T08:51:40;10.80;99.90
74901;DHT22;63461;51.416;6.758;2024-02-14T08:54:05;10.80;99.90
74901;DHT22;63461;51.416;6.758;2024-02-14T08:56:32;10.80;99.90
74901;DHT22;63461;51.416;6.758;2024-02-14T08:59:02;10.80;99.90
74901;DHT22;63461;51.416;6.758;2024-02-14T09:01:29;10.90;99.90
74901;DHT22;63461;51.416;6.758;2024-02-14T09:03:55;10.90;99.90
74901;DHT22;63461;51.416;6.758;2024-02-14T09:06:21;10.80;99.90
74901;DHT22;63461;51.416;6.758;2024-02-14T09:08:47;10.80;99.90
74901;DHT22;63461;51.416;6.758;2024-02-14T09:11:13;10.80;99.90
74901;DHT22;63461;51.416;6.758;2024-02-14T09:13:42;10.80;99.90
74901;DHT22;63461;51.416;6.758;2024-02-14T09:16:11;10.80;99.90
74901;DHT22;63461;51.416;6.758;2024-02-14T09:18:37;10.80;99.90
74901;DHT22;63461;51.416;6.758;2024-02-14T09:21:03;10.80;99.90
74901;DHT22;63461;51.416;6.758;2024-02-14T09:23:31;10.80;99.90
74901;DHT22;63461;51.416;6.758;2024-02-14T09:25:58;10.90;99.90
74901;DHT22;63461;51.416;6.758;2024-02-14T09:28:24;10.90;99.90
74901;DHT22;63461;51.416;6.758;2024-02-14T09:30:51;10.90;99.90
74901;DHT22;63461;51.416;6.758;2024-02-14T09:33:17;11.00;99.90
74901;DHT22;63461;51.416;6.758;2024-02-14T09:35:42;10.90;99.90
74901;DHT22;63461;51.416;6.758;2024-02-14T09:38:12;11.00;99.90
74901;DHT22;63461;51.416;6.758;2024-02-14T09:40:41;11.10;99.90
74901;DHT22;63461;51.416;6.758;2024-02-14T09:43:17;11.20;99.90
74901;DHT22;63461;51.416;6.758;2024-02-14T09:45:50;11.30;99.90
74901;DHT22;63461;51.416;6.758;2024-02-14T09:48:17;11.40;99.90
74901;DHT22;63461;51.416;6.758;2024-02-14T09:50:44;11.40;99.90
74901;DHT22;63461;51.416;6.758;2024-02-14T09:53:12;11.40;99.90
74901;DHT22;63461;51.416;6.758;2024-02-14T09:55:39;11.50;99.90
74901;DHT22;63461;51.416;6.758;2024-02-14T09:58:06;11.50;99.90
74901;DHT22;63461;51.416;6.758;2024-02-14T10:00:35;11.60;99.90
74901;DHT22;63461;51.416;6.758;2024-02-14T10:10:24;11.60;99.90
74901;DHT22;63461;51.416;6.758;2024-02-14T10:12:52;11.50;99.90
74901;DHT22;63461;51.416;6.758;2024-02-14T10:15:19;11.60;99.90
74901;DHT22;63461;51.416;6.758;2024-02-14T10:17:45;11.50;99.90
74901;DHT22;63461;51.416;6.758;2024-02-14T10:20:16;11.60;99.90
74901;DHT22;63461;51.416;6.758;2024-02-14T10:22:42;11.50;99.90
74901;DHT22;63461;51.416;6.758;2024-02-14T10:25:08;11.60;99.90
74901;DHT22;63461;51.416;6.758;2024-02-14T10:27:40;11.60;99.90
74901;DHT22;63461;51.416;6.758;2024-02-14T10:30:10;11.60;99.90
74901;DHT22;63461;51.416;6.758;2024-02-14T10:32:36;11.60;99.90
74901;DHT22;63461;51.416;6.758;2024-02-14T10:35:06;11.60;99.90
74901;DHT22;63461;51.416;6.758;2024-02-14T10:37:37;11.70;99.90
74901;DHT22;63461;51.416;6.758;2024-02-14T10:40:03;11.70;99.90
74901;DHT22;63461;51.416;6.758;2024-02-14T10:42:30;11.70;99.90
74901;DHT22;63461;51.416;6.758;2024-02-14T10:44:57;11.80;99.90
74901;DHT22;63461;51.416;6.758;2024-02-14T10:47:32;11.80;99.90
74901;DHT22;63461;51.416;6.758;2024-02-14T10:50:02;11.80;99.90
74901;DHT22;63461;51.416;6.758;2024-02-14T10:52:31;11.90;99.90
74901;DHT22;63461;51.416;6.758;2024-02-14T10:55:05;12.00;99.90
74901;DHT22;63461;51.416;6.758;2024-02-14T10:57:32;12.10;99.90
74901;DHT22;63461;51.416;6.758;2024-02-14T11:00:02;12.10;99.90
74901;DHT22;63461;51.416;6.758;2024-02-14T11:02:29;12.20;99.90
74901;DHT22;63461;51.416;6.758;2024-02-14T11:04:56;12.20;99.90
74901;DHT22;63461;51.416;6.758;2024-02-14T11:07:23;12.20;99.90
74901;DHT22;63461;51.416;6.758;2024-02-14T11:10:09;12.30;99.90
74901;DHT22;63461;51.416;6.758;2024-02-14T11:12:36;12.30;99.90
74901;DHT22;63461;51.416;6.758;2024-02-14T11:15:09;12.30;99.90
74901;DHT22;63461;51.416;6.758;2024-02-14T11:17:38;12.20;99.90
74901;DHT22;63461;51.416;6.758;2024-02-14T11:20:15;12.30;99.90
74901;DHT22;63461;51.416;6.758;2024-02-14T11:22:50;12.20;99.90
74901;DHT22;63461;51.416;6.758;2024-02-14T11:25:18;12.40;99.90
74901;DHT22;63461;51.416;6.758;2024-02-14T11:27:47;12.30;99.90
74901;DHT22;63461;51.416;6.758;2024-02-14T11:30:13;12.30;99.90
74901;DHT22;63461;51.416;6.758;2024-02-14T11:32:40;12.40;99.90
74901;DHT22;63461;51.416;6.758;2024-02-14T11:35:11;12.30;99.90
74901;DHT22;63461;51.416;6.758;2024-02-14T11:37:38;12.20;99.90
74901;DHT22;63461;51.416;6.758;2024-02-14T11:40:04;12.40;99.90
74901;DHT22;63461;51.416;6.758;2024-02-14T11:42:33;12.30;99.90
74901;DHT22;63461;51.416;6.758;2024-02-14T11:44:58;12.40;99.90
74901;DHT22;63461;51.416;6.758;2024-02-14T11:47:25;12.40;99.90
74901;DHT22;63461;51.416;6.758;2024-02-14T11:49:51;12.50;99.90
74901;DHT22;63461;51.416;6.758;2024-02-14T11:52:17;12.50;99.90
74901;DHT22;63461;51.416;6.758;2024-02-14T11:54:47;12.60;99.90
74901;DHT22;63461;51.416;6.758;2024-02-14T11:57:17;12.60;99.90
74901;DHT22;63461;51.416;6.758;2024-02-14T11:59:44;12.60;99.90
74901;DHT22;63461;51.416;6.758;2024-02-14T12:02:12;12.60;99.90
74901;DHT22;63461;51.416;6.758;2024-02-14T12:04:39;12.60;99.90
74901;DHT22;63461;51.416;6.758;2024-02-14T12:07:05;12.60;99.90
74901;DHT22;63461;51.416;6.758;2024-02-14T12:09:30;12.60;99.90
74901;DHT22;63461;51.416;6.758;2024-02-14T12:11:57;12.60;99.90
74901;DHT22;63461;51.416;6.758;2024-02-14T12:14:23;12.40;99.90
74901;DHT22;63461;51.416;6.758;2024-02-14T12:16:59;12.40;99.90
74901;DHT22;63461;51.416;6.758;2024-02-14T12:19:25;12.30;99.90
74901;DHT22;63461;51.416;6.758;2024-02-14T12:21:52;12.40;99.90
74901;DHT22;63461;51.416;6.758;2024-02-14T12:24:18;12.40;99.90
74901;DHT22;63461;51.416;6.758;2024-02-14T12:26:44;12.50;99.90
74901;DHT22;63461;51.416;6.758;2024-02-14T12:29:11;12.50;99.90
74901;DHT22;63461;51.416;6.758;2024-02-14T12:31:38;12.50;99.90
74901;DHT22;63461;51.416;6.758;2024-02-14T12:34:04;12.50;99.90
74901;DHT22;63461;51.416;6.758;2024-02-14T12:36:31;12.50;99.90
74901;DHT22;63461;51.416;6.758;2024-02-14T12:38:59;12.50;99.90
74901;DHT22;63461;51.416;6.758;2024-02-14T12:41:30;12.40;99.90
74901;DHT22;63461;51.416;6.758;2024-02-14T12:43:58;12.40;99.90
74901;DHT22;63461;51.416;6.758;2024-02-14T12:46:24;12.40;99.90
74901;DHT22;63461;51.416;6.758;2024-02-14T12:48:50;12.30;99.90
74901;DHT22;63461;51.416;6.758;2024-02-14T12:51:16;12.30;99.90
74901;DHT22;63461;51.416;6.758;2024-02-14T12:53:42;12.30;99.90
74901;DHT22;63461;51.416;6.758;2024-02-14T12:56:08;12.30;99.90
74901;DHT22;63461;51.416;6.758;2024-02-14T12:58:34;12.40;99.90
74901;DHT22;63461;51.416;6.758;2024-02-14T13:01:00;12.40;99.90
74901;DHT22;63461;51.416;6.758;2024-02-14T13:03:27;12.50;99.90
74901;DHT22;63461;51.416;6.758;2024-02-14T13:05:54;12.40;99.90
74901;DHT22;63461;51.416;6.758;2024-02-14T13:08:20;12.50;99.90
74901;DHT22;63461;51.416;6.758;2024-02-14T13:10:46;12.50;99.90
74901;DHT22;63461;51.416;6.758;2024-02-14T13:13:13;12.50;99.90
74901;DHT22;63461;51.416;6.758;2024-02-14T13:15:40;12.40;99.90
74901;DHT22;63461;51.416;6.758;2024-02-14T13:18:06;12.50;99.90
74901;DHT22;63461;51.416;6.758;2024-02-14T13:20:32;12.50;99.90
74901;DHT22;63461;51.416;6.758;2024-02-14T13:22:59;12.50;99.90
74901;DHT22;63461;51.416;6.758;2024-02-14T13:25:24;12.50;99.90
74901;DHT22;63461;51.416;6.758;2024-02-14T13:27:51;12.50;99.90
74901;DHT22;63461;51.416;6.758;2024-02-14T13:30:17;12.50;99.90
74901;DHT22;63461;51.416;6.758;2024-02-14T13:32:44;12.50;99.90
74901;DHT22;63461;51.416;6.758;2024-02-14T13:35:10;12.60;99.90
74901;DHT22;63461;51.416;6.758;2024-02-14T13:37:39;12.60;99.90
74901;DHT22;63461;51.416;6.758;2024-02-14T13:40:06;12.60;99.90
74901;DHT22;63461;51.416;6.758;2024-02-14T13:42:36;12.60;99.90
74901;DHT22;63461;51.416;6.758;2024-02-14T13:45:07;12.60;99.90
74901;DHT22;63461;51.416;6.758;2024-02-14T13:47:37;12.50;99.90
74901;DHT22;63461;51.416;6.758;2024-02-14T13:50:07;12.60;99.90
74901;DHT22;63461;51.416;6.758;2024-02-14T13:52:33;12.60;99.90
74901;DHT22;63461;51.416;6.758;2024-02-14T13:55:00;12.60;99.90
74901;DHT22;63461;51.416;6.758;2024-02-14T13:57:28;12.60;99.90
74901;DHT22;63461;51.416;6.758;2024-02-14T13:59:55;12.50;99.90
74901;DHT22;63461;51.416;6.758;2024-02-14T14:02:20;12.50;99.90
74901;DHT22;63461;51.416;6.758;2024-02-14T14:04:46;12.50;99.90
74901;DHT22;63461;51.416;6.758;2024-02-14T14:07:14;12.40;99.90
74901;DHT22;63461;51.416;6.758;2024-02-14T14:09:39;12.40;99.90
74901;DHT22;63461;51.416;6.758;2024-02-14T14:12:05;12.40;99.90
74901;DHT22;63461;51.416;6.758;2024-02-14T14:14:31;12.50;99.90
74901;DHT22;63461;51.416;6.758;2024-02-14T14:16:57;12.50;99.90
74901;DHT22;63461;51.416;6.758;2024-02-14T14:19:23;12.50;99.90
74901;DHT22;63461;51.416;6.758;2024-02-14T14:21:49;12.40;99.90
74901;DHT22;63461;51.416;6.758;2024-02-14T14:24:18;12.40;99.90
74901;DHT22;63461;51.416;6.758;2024-02-14T14:26:44;12.40;99.90
74901;DHT22;63461;51.416;6.758;2024-02-14T14:29:11;12.30;99.90
74901;DHT22;63461;51.416;6.758;2024-02-14T14:31:37;12.30;99.90
74901;DHT22;63461;51.416;6.758;2024-02-14T14:34:02;12.20;99.90
74901;DHT22;63461;51.416;6.758;2024-02-14T14:36:29;12.20;99.90
74901;DHT22;63461;51.416;6.758;2024-02-14T14:38:55;12.20;99.90
74901;DHT22;63461;51.416;6.758;2024-02-14T14:41:20;12.20;99.90
74901;DHT22;63461;51.416;6.758;2024-02-14T14:43:46;12.20;99.90
74901;DHT22;63461;51.416;6.758;2024-02-14T14:46:15;12.10;99.90
74901;DHT22;63461;51.416;6.758;2024-02-14T14:48:41;12.10;99.90
74901;DHT22;63461;51.416;6.758;2024-02-14T14:51:07;12.10;99.90
74901;DHT22;63461;51.416;6.758;2024-02-14T14:53:33;12.00;99.90
74901;DHT22;63461;51.416;6.758;2024-02-14T14:56:01;12.10;99.90
74901;DHT22;63461;51.416;6.758;2024-02-14T14:58:27;12.10;99.90
74901;DHT22;63461;51.416;6.758;2024-02-14T15:00:54;12.10;99.90
74901;DHT22;63461;51.416;6.758;2024-02-14T15:03:26;12.10;99.90
74901;DHT22;63461;51.416;6.758;2024-02-14T15:05:52;12.10;99.90
74901;DHT22;63461;51.416;6.758;2024-02-14T15:08:19;12.10;99.90
74901;DHT22;63461;51.416;6.758;2024-02-14T15:10:51;12.00;99.90
74901;DHT22;63461;51.416;6.758;2024-02-14T15:13:18;12.00;99.90
74901;DHT22;63461;51.416;6.758;2024-02-14T15:15:44;12.00;99.90
74901;DHT22;63461;51.416;6.758;2024-02-14T15:18:10;12.10;99.90
74901;DHT22;63461;51.416;6.758;2024-02-14T15:20:36;12.00;99.90
74901;DHT22;63461;51.416;6.758;2024-02-14T15:23:03;12.00;99.90
74901;DHT22;63461;51.416;6.758;2024-02-14T15:25:29;12.10;99.90
74901;DHT22;63461;51.416;6.758;2024-02-14T15:27:55;12.00;99.90
74901;DHT22;63461;51.416;6.758;2024-02-14T15:30:23;12.10;99.90
74901;DHT22;63461;51.416;6.758;2024-02-14T15:33:08;12.00;99.90
74901;DHT22;63461;51.416;6.758;2024-02-14T15:35:53;12.10;99.90
74901;DHT22;63461;51.416;6.758;2024-02-14T15:38:20;12.10;99.90
74901;DHT22;63461;51.416;6.758;2024-02-14T15:40:55;12.10;99.90
74901;DHT22;63461;51.416;6.758;2024-02-14T15:43:27;12.10;99.90
74901;DHT22;63461;51.416;6.758;2024-02-14T15:45:54;12.00;99.90
74901;DHT22;63461;51.416;6.758;2024-02-14T15:48:20;12.00;99.90